createdAt,value
2022-09-28T00:01:21.529Z,21.80
2022-09-28T00:04:23.626Z,21.80
2022-09-28T00:07:25.307Z,21.80
2022-09-28T00:10:27.046Z,21.80
2022-09-28T00:13:29.818Z,21.80
2022-09-28T00:16:35.483Z,21.80
2022-09-28T00:19:37.385Z,21.80
2022-09-28T00:22:39.168Z,21.80
2022-09-28T00:25:40.825Z,21.80
2022-09-28T00:28:42.505Z,21.80
2022-09-28T00:31:44.433Z,21.80
2022-09-28T00:34:46.190Z,21.70
2022-09-28T00:37:48.992Z,21.70
2022-09-28T00:40:50.868Z,21.70
2022-09-28T00:43:53.498Z,21.70
2022-09-28T00:46:58.132Z,21.70
2022-09-28T00:50:27.281Z,21.70
2022-09-28T00:53:34.701Z,21.70
2022-09-28T00:56:40.275Z,21.70
2022-09-28T00:59:42.948Z,21.70
2022-09-28T01:02:47.468Z,21.70
2022-09-28T01:05:52.469Z,21.70
2022-09-28T01:08:58.313Z,21.70
2022-09-28T01:12:00.048Z,21.70
2022-09-28T01:15:03.312Z,21.70
2022-09-28T01:18:18.935Z,21.70
2022-09-28T01:21:22.723Z,21.60
2022-09-28T01:24:46.201Z,21.60
2022-09-28T01:27:54.481Z,21.60
2022-09-28T01:31:09.535Z,21.60
2022-09-28T01:34:20.729Z,21.60
2022-09-28T01:37:28.263Z,21.60
2022-09-28T01:40:32.252Z,21.70
2022-09-28T01:43:40.155Z,21.60
2022-09-28T01:46:46.190Z,21.60
2022-09-28T01:49:53.048Z,21.60
2022-09-28T01:53:07.832Z,21.60
2022-09-28T01:56:18.208Z,21.60
2022-09-28T01:59:29.809Z,21.60
2022-09-28T02:02:37.366Z,21.60
2022-09-28T02:05:41.951Z,21.60
2022-09-28T02:08:57.767Z,21.60
2022-09-28T02:12:17.784Z,21.60
2022-09-28T02:15:27.558Z,21.60
2022-09-28T02:18:29.448Z,21.60
2022-09-28T02:21:58.012Z,21.60
2022-09-28T02:25:03.229Z,21.60
2022-09-28T02:28:07.628Z,21.60
2022-09-28T02:31:09.406Z,21.50
2022-09-28T02:34:11.299Z,21.60
2022-09-28T02:37:13.106Z,21.60
2022-09-28T02:40:25.147Z,21.50
2022-09-28T02:43:31.548Z,21.50
2022-09-28T02:46:45.547Z,21.60
2022-09-28T02:50:19.640Z,21.50
2022-09-28T02:53:45.817Z,21.50
2022-09-28T02:57:12.064Z,21.50
2022-09-28T03:00:22.855Z,21.50
2022-09-28T03:03:37.509Z,21.50
2022-09-28T03:06:53.179Z,21.50
2022-09-28T03:10:16.926Z,21.50
2022-09-28T03:13:19.115Z,21.50
2022-09-28T03:16:21.313Z,21.50
2022-09-28T03:19:29.581Z,21.50
2022-09-28T03:22:31.503Z,21.50
2022-09-28T03:25:33.210Z,21.50
2022-09-28T03:28:36.228Z,21.50
2022-09-28T03:31:38.354Z,21.50
2022-09-28T03:34:40.161Z,21.50
2022-09-28T03:37:41.850Z,21.50
2022-09-28T03:40:43.740Z,21.50
2022-09-28T03:43:45.517Z,21.50
2022-09-28T03:46:49.021Z,21.40
2022-09-28T03:49:50.891Z,21.40
2022-09-28T03:52:52.630Z,21.40
2022-09-28T03:55:54.367Z,21.50
2022-09-28T03:58:56.152Z,21.50
2022-09-28T04:01:57.921Z,21.40
2022-09-28T04:05:00.740Z,21.40
2022-09-28T04:08:02.565Z,21.40
2022-09-28T04:11:04.675Z,21.40
2022-09-28T04:14:06.503Z,21.40
2022-09-28T04:17:08.514Z,21.40
2022-09-28T04:20:10.237Z,21.40
2022-09-28T04:23:15.889Z,21.40
2022-09-28T04:26:20.826Z,21.40
2022-09-28T04:29:22.935Z,21.40
2022-09-28T04:32:29.366Z,21.40
2022-09-28T04:35:31.525Z,21.40
2022-09-28T04:38:51.689Z,21.40
2022-09-28T04:41:54.993Z,21.40
2022-09-28T04:44:58.680Z,21.40
2022-09-28T04:48:00.543Z,21.40
2022-09-28T04:51:20.175Z,21.40
2022-09-28T04:54:22.147Z,21.40
2022-09-28T04:57:23.946Z,21.40
2022-09-28T05:00:25.692Z,21.40
2022-09-28T05:03:41.918Z,21.30
2022-09-28T05:07:02.030Z,21.30
2022-09-28T05:10:04.068Z,21.40
2022-09-28T05:13:08.703Z,21.30
2022-09-28T05:16:11.052Z,21.30
2022-09-28T05:19:34.794Z,21.30
2022-09-28T05:22:38.067Z,21.30
2022-09-28T05:25:43.289Z,21.30
2022-09-28T05:28:53.694Z,21.30
2022-09-28T05:31:58.469Z,21.20
2022-09-28T05:35:23.571Z,21.20
2022-09-28T05:38:25.661Z,21.20
2022-09-28T05:41:27.384Z,21.20
2022-09-28T05:44:29.066Z,21.20
2022-09-28T05:47:32.040Z,21.20
2022-09-28T05:50:34.043Z,21.30
2022-09-28T05:53:36.009Z,21.20
2022-09-28T05:56:37.721Z,21.20
2022-09-28T05:59:41.596Z,21.30
2022-09-28T06:02:43.461Z,21.30
2022-09-28T06:05:48.002Z,21.30
2022-09-28T06:08:50.015Z,21.30
2022-09-28T06:12:17.744Z,21.30
2022-09-28T06:15:29.467Z,21.30
2022-09-28T06:18:32.133Z,21.30
2022-09-28T06:21:37.079Z,21.20
2022-09-28T06:24:38.866Z,21.30
2022-09-28T06:27:42.501Z,21.30
2022-09-28T06:30:44.947Z,21.30
2022-09-28T06:33:51.698Z,21.30
2022-09-28T06:36:53.434Z,21.30
2022-09-28T06:39:55.217Z,21.30
2022-09-28T06:43:02.859Z,21.30
2022-09-28T06:46:25.376Z,21.30
2022-09-28T06:49:51.208Z,21.30
2022-09-28T06:52:57.055Z,21.30
2022-09-28T06:56:06.893Z,21.70
2022-09-28T06:59:08.914Z,22.30
2022-09-28T07:02:14.280Z,22.30
2022-09-28T07:05:48.148Z,22.50
2022-09-28T07:09:02.981Z,22.90
2022-09-28T07:12:26.205Z,23.10
2022-09-28T07:15:31.615Z,23.00
2022-09-28T07:18:34.385Z,23.10
2022-09-28T07:21:36.179Z,22.60
2022-09-28T07:24:40.723Z,22.20
2022-09-28T07:28:15.764Z,22.10
2022-09-28T07:31:36.224Z,21.90
2022-09-28T07:34:58.842Z,21.80
2022-09-28T07:38:21.450Z,21.80
2022-09-28T07:41:32.490Z,21.70
2022-09-28T07:44:36.545Z,21.70
2022-09-28T07:47:38.253Z,21.70
2022-09-28T07:51:00.089Z,21.70
2022-09-28T07:54:08.559Z,21.60
2022-09-28T07:57:33.494Z,21.60
2022-09-28T08:00:54.014Z,21.60
2022-09-28T08:03:56.200Z,21.60
2022-09-28T08:07:00.278Z,21.60
2022-09-28T08:10:02.074Z,21.70
2022-09-28T08:13:06.461Z,21.70
2022-09-28T08:16:32.318Z,21.80
2022-09-28T08:20:23.119Z,21.80
2022-09-28T08:23:25.634Z,21.70
2022-09-28T08:26:28.965Z,21.70
2022-09-28T08:29:31.784Z,21.70
2022-09-28T08:32:50.843Z,21.70
2022-09-28T08:36:11.123Z,21.70
2022-09-28T08:39:32.763Z,21.90
2022-09-28T08:42:48.935Z,22.00
2022-09-28T08:46:11.224Z,22.00
2022-09-28T08:49:48.515Z,22.10
2022-09-28T08:53:32.312Z,22.10
2022-09-28T08:56:49.610Z,22.10
2022-09-28T08:59:53.235Z,22.00
2022-09-28T09:03:19.882Z,22.00
2022-09-28T09:06:51.208Z,21.90
2022-09-28T09:10:52.310Z,21.90
2022-09-28T09:14:17.325Z,21.90
2022-09-28T09:17:39.497Z,21.90
2022-09-28T09:21:13.803Z,21.90
2022-09-28T09:24:36.383Z,21.90
2022-09-28T09:28:08.850Z,21.90
2022-09-28T09:31:13.556Z,21.90
2022-09-28T09:34:45.890Z,21.90
2022-09-28T09:38:33.025Z,21.90
2022-09-28T09:42:17.757Z,21.90
2022-09-28T09:46:29.479Z,21.90
2022-09-28T09:50:12.659Z,21.90
2022-09-28T09:53:23.720Z,21.90
2022-09-28T09:56:36.159Z,21.90
2022-09-28T10:00:15.279Z,21.90
2022-09-28T10:03:29.743Z,21.90
2022-09-28T10:06:43.486Z,21.90
2022-09-28T10:09:48.479Z,21.90
2022-09-28T10:13:01.632Z,22.00
2022-09-28T10:16:05.115Z,22.00
2022-09-28T10:19:21.377Z,22.00
2022-09-28T10:22:41.571Z,22.10
2022-09-28T10:25:51.167Z,22.10
2022-09-28T10:29:05.297Z,22.10
2022-09-28T10:32:20.006Z,22.10
2022-09-28T10:35:27.029Z,22.00
2022-09-28T10:38:33.372Z,22.10
2022-09-28T10:41:50.885Z,22.10
2022-09-28T10:44:58.628Z,22.10
2022-09-28T10:48:23.096Z,22.10
2022-09-28T10:51:41.302Z,22.10
2022-09-28T10:54:53.483Z,22.20
2022-09-28T10:57:57.235Z,22.20
2022-09-28T11:01:09.224Z,22.20
2022-09-28T11:04:21.933Z,22.20
2022-09-28T11:07:26.891Z,22.20
2022-09-28T11:10:30.968Z,22.20
2022-09-28T11:13:51.100Z,22.20
2022-09-28T11:17:17.688Z,22.20
2022-09-28T11:20:27.442Z,22.20
2022-09-28T11:23:32.090Z,22.20
2022-09-28T11:26:52.821Z,22.10
2022-09-28T11:29:59.011Z,22.10
2022-09-28T11:33:20.564Z,22.10
2022-09-28T11:37:21.934Z,22.10
2022-09-28T11:40:50.285Z,22.10
2022-09-28T11:44:29.443Z,22.10
2022-09-28T11:47:57.523Z,22.10
2022-09-28T11:51:05.818Z,22.10
2022-09-28T11:54:18.417Z,22.10
2022-09-28T11:57:27.980Z,22.10
2022-09-28T12:00:33.895Z,22.10
2022-09-28T12:03:43.736Z,22.10
2022-09-28T12:07:02.924Z,22.10
2022-09-28T12:10:10.070Z,22.00
2022-09-28T12:13:14.141Z,22.00
2022-09-28T12:17:04.365Z,22.00
2022-09-28T12:20:30.640Z,22.00
2022-09-28T12:23:35.926Z,21.90
2022-09-28T12:27:00.511Z,22.00
2022-09-28T12:30:16.823Z,21.90
2022-09-28T12:33:18.583Z,21.90
2022-09-28T12:36:41.430Z,22.00
2022-09-28T12:40:22.542Z,21.90
2022-09-28T12:43:31.063Z,21.90
2022-09-28T12:47:10.310Z,21.90
2022-09-28T12:50:42.697Z,21.90
2022-09-28T12:54:19.703Z,21.90
2022-09-28T12:57:43.563Z,21.90
2022-09-28T13:00:54.022Z,21.90
2022-09-28T13:04:04.408Z,21.90
2022-09-28T13:07:19.987Z,21.90
2022-09-28T13:10:40.873Z,21.80
2022-09-28T13:14:03.017Z,21.80
2022-09-28T13:17:11.169Z,21.80
2022-09-28T13:20:39.111Z,21.90
2022-09-28T13:23:44.175Z,21.80
2022-09-28T13:26:47.848Z,21.80
2022-09-28T13:29:51.100Z,21.80
2022-09-28T13:32:58.701Z,21.90
2022-09-28T13:36:00.397Z,21.80
2022-09-28T13:39:02.171Z,21.80
2022-09-28T13:42:06.068Z,21.80
2022-09-28T13:45:22.815Z,21.80
2022-09-28T13:48:48.409Z,21.80
2022-09-28T13:51:55.803Z,21.80
2022-09-28T13:55:12.595Z,21.80
2022-09-28T13:58:58.286Z,21.80
2022-09-28T14:02:31.785Z,21.80
2022-09-28T14:05:46.216Z,21.80
2022-09-28T14:09:13.885Z,21.80
2022-09-28T14:12:27.490Z,21.80
2022-09-28T14:15:29.258Z,21.80
2022-09-28T14:18:33.740Z,21.80
2022-09-28T14:21:46.361Z,21.80
2022-09-28T14:25:03.533Z,21.80
2022-09-28T14:28:42.698Z,21.80
2022-09-28T14:31:45.284Z,21.70
2022-09-28T14:34:54.745Z,21.80
2022-09-28T14:38:21.354Z,21.80
2022-09-28T14:41:29.663Z,21.70
2022-09-28T14:45:05.224Z,21.80
2022-09-28T14:48:17.978Z,21.70
2022-09-28T14:51:33.013Z,21.80
2022-09-28T14:54:54.540Z,21.80
2022-09-28T14:57:58.384Z,21.80
2022-09-28T15:01:15.882Z,21.80
2022-09-28T15:04:18.994Z,21.70
2022-09-28T15:07:28.624Z,21.70
2022-09-28T15:10:32.614Z,21.70
2022-09-28T15:13:34.452Z,21.70
2022-09-28T15:16:36.604Z,21.70
2022-09-28T15:20:17.137Z,21.70
2022-09-28T15:23:34.116Z,21.70
2022-09-28T15:26:35.839Z,21.70
2022-09-28T15:29:37.532Z,21.70
2022-09-28T15:32:39.207Z,21.70
2022-09-28T15:35:41.126Z,21.70
2022-09-28T15:38:43.320Z,21.70
2022-09-28T15:41:48.023Z,21.70
2022-09-28T15:45:03.451Z,21.70
2022-09-28T15:48:26.039Z,21.70
2022-09-28T15:51:29.225Z,21.70
2022-09-28T15:54:44.436Z,21.60
2022-09-28T15:57:47.345Z,21.70
2022-09-28T16:00:51.432Z,21.70
2022-09-28T16:03:53.297Z,21.60
2022-09-28T16:07:13.115Z,21.70
2022-09-28T16:10:15.380Z,21.70
2022-09-28T16:13:19.989Z,21.70
2022-09-28T16:16:28.185Z,21.70
2022-09-28T16:19:36.067Z,21.70
2022-09-28T16:22:38.111Z,21.70
2022-09-28T16:25:47.532Z,21.70
2022-09-28T16:28:51.857Z,21.70
2022-09-28T16:31:55.511Z,21.70
2022-09-28T16:35:10.773Z,21.70
2022-09-28T16:38:14.797Z,21.70
2022-09-28T16:41:21.158Z,21.70
2022-09-28T16:44:25.921Z,21.70
2022-09-28T16:47:34.120Z,21.80
2022-09-28T16:50:35.852Z,21.80
2022-09-28T16:53:56.367Z,21.90
2022-09-28T16:56:58.517Z,22.00
2022-09-28T17:00:01.410Z,22.00
2022-09-28T17:03:12.576Z,22.00
2022-09-28T17:06:15.666Z,22.00
2022-09-28T17:09:17.465Z,22.00
2022-09-28T17:12:24.383Z,22.00
2022-09-28T17:15:26.135Z,22.00
2022-09-28T17:18:28.053Z,22.00
2022-09-28T17:21:29.746Z,22.00
2022-09-28T17:24:31.417Z,22.10
2022-09-28T17:27:33.116Z,22.10
2022-09-28T17:30:34.839Z,22.10
2022-09-28T17:33:36.605Z,22.10
2022-09-28T17:36:40.525Z,22.10
2022-09-28T17:39:42.276Z,22.10
2022-09-28T17:42:44.070Z,22.20
2022-09-28T17:45:46.934Z,22.20
2022-09-28T17:48:49.025Z,22.20
2022-09-28T17:51:52.746Z,22.30
2022-09-28T17:54:54.449Z,22.30
2022-09-28T17:57:56.921Z,22.30
2022-09-28T18:00:58.724Z,22.40
2022-09-28T18:04:01.735Z,22.40
2022-09-28T18:07:03.698Z,22.40
2022-09-28T18:10:06.596Z,22.40
2022-09-28T18:13:08.676Z,22.40
2022-09-28T18:16:10.653Z,22.40
2022-09-28T18:19:12.539Z,22.50
2022-09-28T18:22:14.246Z,22.50
2022-09-28T18:25:16.049Z,22.50
2022-09-28T18:28:17.763Z,22.50
2022-09-28T18:31:19.509Z,22.60
2022-09-28T18:34:21.253Z,22.60
2022-09-28T18:37:23.018Z,22.60
2022-09-28T18:40:24.913Z,22.60
2022-09-28T18:43:26.650Z,22.60
2022-09-28T18:46:29.896Z,22.70
2022-09-28T18:49:33.471Z,22.70
2022-09-28T18:52:42.854Z,22.70
2022-09-28T18:55:45.074Z,22.70
2022-09-28T18:58:47.888Z,22.70
2022-09-28T19:01:49.908Z,22.70
2022-09-28T19:04:52.440Z,22.80
2022-09-28T19:07:55.049Z,22.70
2022-09-28T19:11:14.775Z,22.70
2022-09-28T19:14:16.690Z,22.70
2022-09-28T19:17:18.567Z,22.80
2022-09-28T19:20:20.745Z,22.70
2022-09-28T19:23:24.678Z,22.80
2022-09-28T19:26:27.634Z,22.80
2022-09-28T19:29:29.415Z,22.80
2022-09-28T19:32:31.112Z,22.80
2022-09-28T19:35:32.810Z,22.80
2022-09-28T19:38:36.174Z,22.70
2022-09-28T19:41:49.418Z,22.70
2022-09-28T19:44:51.348Z,22.70
2022-09-28T19:47:58.685Z,22.80
2022-09-28T19:51:06.443Z,22.70
2022-09-28T19:54:08.543Z,22.70
2022-09-28T19:57:11.564Z,22.70
2022-09-28T20:00:13.392Z,22.70
2022-09-28T20:03:15.162Z,22.70
2022-09-28T20:06:17.564Z,22.70
2022-09-28T20:09:19.555Z,22.70
2022-09-28T20:12:22.218Z,22.70
2022-09-28T20:15:23.912Z,22.70
2022-09-28T20:18:27.460Z,22.70
2022-09-28T20:21:30.189Z,22.70
2022-09-28T20:24:32.526Z,22.70
2022-09-28T20:27:34.202Z,22.70
2022-09-28T20:30:37.256Z,22.70
2022-09-28T20:33:39.552Z,22.70
2022-09-28T20:36:43.057Z,22.70
2022-09-28T20:39:45.313Z,22.70
2022-09-28T20:42:47.072Z,22.70
2022-09-28T20:45:50.472Z,22.60
2022-09-28T20:48:54.939Z,22.60
2022-09-28T20:51:56.620Z,22.60
2022-09-28T20:54:58.342Z,22.60
2022-09-28T20:58:03.257Z,22.60
2022-09-28T21:01:13.605Z,22.60
2022-09-28T21:04:15.405Z,22.60
2022-09-28T21:07:17.221Z,22.60
2022-09-28T21:10:19.021Z,22.60
2022-09-28T21:13:21.861Z,22.60
2022-09-28T21:16:24.854Z,22.60
2022-09-28T21:19:28.372Z,22.60
2022-09-28T21:22:30.068Z,22.60
2022-09-28T21:25:31.763Z,22.60
2022-09-28T21:28:34.224Z,22.60
2022-09-28T21:31:40.292Z,22.60
2022-09-28T21:34:42.075Z,22.60
2022-09-28T21:37:43.762Z,22.50
2022-09-28T21:40:45.612Z,22.50
2022-09-28T21:43:47.390Z,22.50
2022-09-28T21:46:49.178Z,22.50
2022-09-28T21:49:50.909Z,22.50
2022-09-28T21:52:55.098Z,22.50
2022-09-28T21:55:57.910Z,22.50
2022-09-28T21:59:01.136Z,22.50
2022-09-28T22:02:05.713Z,22.50
2022-09-28T22:05:08.404Z,22.40
2022-09-28T22:08:10.107Z,22.40
2022-09-28T22:11:17.892Z,22.40
2022-09-28T22:14:19.697Z,22.40
2022-09-28T22:17:21.625Z,22.40
2022-09-28T22:20:23.339Z,22.40
2022-09-28T22:23:25.035Z,22.40
2022-09-28T22:26:27.779Z,22.40
2022-09-28T22:29:29.661Z,22.40
2022-09-28T22:32:31.402Z,22.40
2022-09-28T22:35:33.070Z,22.40
2022-09-28T22:38:35.365Z,22.30
2022-09-28T22:41:37.087Z,22.30
2022-09-28T22:44:40.469Z,22.30
2022-09-28T22:47:42.592Z,22.30
2022-09-28T22:50:51.726Z,22.30
2022-09-28T22:53:53.529Z,22.30
2022-09-28T22:56:55.244Z,22.30
2022-09-28T22:59:56.940Z,22.30
2022-09-28T23:02:58.784Z,22.30
2022-09-28T23:06:00.708Z,22.30
2022-09-28T23:09:02.568Z,22.30
2022-09-28T23:12:04.283Z,22.20
2022-09-28T23:15:06.855Z,22.20
2022-09-28T23:18:08.980Z,22.20
2022-09-28T23:21:15.293Z,22.20
2022-09-28T23:24:17.289Z,22.20
2022-09-28T23:27:19.038Z,22.20
2022-09-28T23:30:23.554Z,22.20
2022-09-28T23:33:25.323Z,22.20
2022-09-28T23:36:27.891Z,22.20
2022-09-28T23:39:29.615Z,22.20
2022-09-28T23:42:31.366Z,22.20
2022-09-28T23:45:33.604Z,22.10
2022-09-28T23:48:35.361Z,22.10
2022-09-28T23:51:38.092Z,22.10
2022-09-28T23:54:39.793Z,22.10
2022-09-28T23:57:43.998Z,22.10
